Time;durP1;ratioP1;P1;durP2;ratioP2;P2;SDS_P1;SDS_P2;PMS_P1;PMS_P2;Temp;Humidity;BMP_temperature;BMP_pressure;BME280_temperature;BME280_humidity;BME280_pressure;Samples;Min_cycle;Max_cycle;Signal;HPM_P1;HPM_P2
2022/05/12 00:01:26;;;;;;;12.07;5.70;;;;;;;9.49;45.15;100204.44;1735477;80;21015;-70
2022/05/12 00:03:53;;;;;;;9.40;5.15;;;;;;;9.45;45.29;100204.30;1714494;82;21472;-70
2022/05/12 00:06:21;;;;;;;9.95;4.97;;;;;;;9.41;45.31;100202.87;1731648;82;21088;-70
2022/05/12 00:08:48;;;;;;;10.15;5.15;;;;;;;9.39;45.33;100203.48;1744839;82;21461;-72
2022/05/12 00:11:15;;;;;;;11.08;5.70;;;;;;;9.35;45.35;100200.70;1745857;79;21794;-70
2022/05/12 00:13:43;;;;;;;15.08;5.12;;;;;;;9.33;45.43;100202.62;1766014;79;21151;-70
2022/05/12 00:16:10;;;;;;;12.55;4.97;;;;;;;9.30;45.54;100201.55;1771285;79;20942;-70
2022/05/12 00:18:37;;;;;;;12.28;5.25;;;;;;;9.26;45.60;100206.67;1773198;80;21376;-70
2022/05/12 00:21:04;;;;;;;14.28;5.47;;;;;;;9.23;45.74;100197.22;1746307;79;21052;-71
2022/05/12 00:23:31;;;;;;;12.35;5.15;;;;;;;9.18;45.81;100194.95;1772630;80;21932;-70
2022/05/12 00:25:58;;;;;;;11.12;4.85;;;;;;;9.16;45.89;100190.73;1746966;79;20959;-72
2022/05/12 00:28:26;;;;;;;11.55;5.10;;;;;;;9.13;46.05;100196.23;1772137;79;20990;-70
2022/05/12 00:30:55;;;;;;;10.68;4.83;;;;;;;9.10;46.15;100185.47;1774153;79;21050;-70
2022/05/12 00:33:22;;;;;;;17.95;5.25;;;;;;;9.08;46.13;100191.81;1774804;80;21093;-71
2022/05/12 00:35:49;;;;;;;9.83;5.17;;;;;;;9.03;46.24;100196.09;1751010;80;21791;-70
2022/05/12 00:38:16;;;;;;;11.28;4.67;;;;;;;9.02;46.22;100192.27;1775562;80;21457;-70
2022/05/12 00:40:44;;;;;;;9.78;5.03;;;;;;;8.99;46.28;100192.03;1770970;79;20945;-75
2022/05/12 00:43:45;;;;;;;10.48;5.20;;;;;;;8.96;46.35;100192.24;1784751;78;20948;-70
2022/05/12 00:46:16;;;;;;;11.70;5.10;;;;;;;8.92;46.53;100188.17;1765949;80;21008;-70
2022/05/12 00:48:44;;;;;;;10.75;4.65;;;;;;;8.87;46.71;100184.55;1759796;79;21835;-72
2022/05/12 00:51:14;;;;;;;8.83;4.60;;;;;;;8.84;46.86;100187.42;1785949;78;21034;-72
2022/05/12 00:53:42;;;;;;;9.70;4.87;;;;;;;8.79;46.95;100182.16;1774395;80;21059;-70
2022/05/12 00:56:12;;;;;;;13.58;5.03;;;;;;;8.75;47.16;100185.48;1786885;78;20992;-71
2022/05/12 00:58:39;;;;;;;8.78;5.10;;;;;;;8.72;47.26;100183.56;1773568;78;20956;-70
2022/05/12 01:01:08;;;;;;;9.78;5.28;;;;;;;8.70;47.38;100185.48;1757877;78;21812;-70
2022/05/12 01:03:37;;;;;;;9.68;4.97;;;;;;;8.69;47.54;100187.75;1756866;81;21047;-70
2022/05/12 01:06:04;;;;;;;9.90;4.58;;;;;;;8.67;47.57;100187.00;1729557;81;21055;-70
2022/05/12 01:08:31;;;;;;;9.53;4.67;;;;;;;8.67;47.69;100189.64;1765845;78;21000;-71
2022/05/12 01:11:03;;;;;;;10.32;4.55;;;;;;;8.66;47.79;100184.85;1763930;78;21400;-70
2022/05/12 01:13:31;;;;;;;10.38;4.75;;;;;;;8.65;47.90;100187.13;1757867;78;22011;-70
2022/05/12 01:16:00;;;;;;;9.15;4.17;;;;;;;8.67;47.84;100190.95;1751740;81;21110;-70
2022/05/12 01:18:29;;;;;;;14.00;4.90;;;;;;;8.67;47.92;100186.52;1756865;81;21045;-69
2022/05/12 01:20:56;;;;;;;8.78;4.58;;;;;;;8.68;47.96;100178.98;1760427;78;21478;-70
2022/05/12 01:23:28;;;;;;;9.50;4.58;;;;;;;8.69;48.08;100181.17;1784528;80;21012;-70
2022/05/12 01:25:59;;;;;;;8.93;4.40;;;;;;;8.71;48.13;100188.47;1762576;78;21817;-70
2022/05/12 01:28:26;;;;;;;9.85;4.58;;;;;;;8.70;48.23;100184.16;1757887;80;20981;-70
2022/05/12 01:30:53;;;;;;;7.92;4.67;;;;;;;8.69;48.25;100180.69;1785074;78;21027;-70
2022/05/12 01:33:21;;;;;;;11.75;4.60;;;;;;;8.69;48.26;100186.44;1756900;81;20988;-70
2022/05/12 01:35:47;;;;;;;9.23;4.20;;;;;;;8.68;48.32;100184.73;1757038;81;21494;-69
2022/05/12 01:38:14;;;;;;;8.73;4.50;;;;;;;8.68;48.40;100178.98;1757016;81;21830;-70
2022/05/12 01:40:43;;;;;;;13.45;4.62;;;;;;;8.68;48.34;100178.98;1772814;78;21119;-70
2022/05/12 01:43:12;;;;;;;8.43;4.28;;;;;;;8.68;48.39;100175.52;1762878;78;20988;-72
2022/05/12 01:45:39;;;;;;;9.88;4.70;;;;;;;8.68;48.37;100175.52;1758771;78;21387;-72
2022/05/12 01:48:08;;;;;;;10.88;4.83;;;;;;;8.67;48.46;100173.36;1757016;81;21003;-70
2022/05/12 01:50:37;;;;;;;11.03;5.08;;;;;;;8.67;48.49;100179.11;1762240;78;21952;-70
2022/05/12 01:53:05;;;;;;;10.13;4.78;;;;;;;8.67;48.46;100177.31;1757604;80;21484;-70
2022/05/12 01:55:32;;;;;;;11.33;4.62;;;;;;;8.67;48.50;100175.16;1757023;81;21031;-70
2022/05/12 01:57:59;;;;;;;8.88;4.55;;;;;;;8.68;48.57;100182.09;1761476;78;21016;-70
2022/05/12 02:00:28;;;;;;;12.43;5.20;;;;;;;8.67;48.53;100178.63;1787306;79;20991;-70
2022/05/12 02:02:55;;;;;;;9.75;4.65;;;;;;;8.69;48.56;100177.22;1761728;78;21895;-70
2022/05/12 02:05:22;;;;;;;13.60;4.58;;;;;;;8.70;48.62;100178.90;1756977;81;21482;-70
2022/05/12 02:07:49;;;;;;;6.97;4.47;;;;;;;8.70;48.70;100181.53;1756944;81;20960;-70
2022/05/12 02:10:27;;;;;;;9.95;4.65;;;;;;;8.71;48.70;100176.63;1774089;78;20948;-70
2022/05/12 02:12:54;;;;;;;10.60;4.50;;;;;;;8.72;48.67;100182.25;1774597;78;21004;-70
2022/05/12 02:15:22;;;;;;;10.93;4.72;;;;;;;8.71;48.82;100173.99;1758000;78;22648;-70
2022/05/12 02:17:49;;;;;;;8.40;4.35;;;;;;;8.72;48.82;100173.88;1756643;78;21035;-70
2022/05/12 02:20:18;;;;;;;11.45;4.42;;;;;;;8.72;48.75;100173.88;1787606;80;20945;-71
2022/05/12 02:22:45;;;;;;;9.70;4.28;;;;;;;8.73;48.66;100176.02;1760960;80;21143;-70
2022/05/12 02:25:12;;;;;;;10.98;4.42;;;;;;;8.76;48.74;100174.47;1786157;78;21086;-70
2022/05/12 02:27:46;;;;;;;11.38;4.40;;;;;;;8.77;48.70;100178.30;1788244;80;21858;-70
2022/05/12 02:30:24;;;;;;;9.58;4.70;;;;;;;8.78;48.68;100183.09;1771241;78;21075;-70
2022/05/12 02:32:52;;;;;;;10.30;5.00;;;;;;;8.80;48.62;100183.84;1761920;78;21066;-70
2022/05/12 02:35:19;;;;;;;12.93;4.65;;;;;;;8.81;48.63;100182.87;1771662;78;20963;-71
2022/05/12 02:37:46;;;;;;;12.40;4.75;;;;;;;8.82;48.71;100181.92;1758528;78;20944;-70
2022/05/12 02:40:16;;;;;;;8.73;4.10;;;;;;;8.83;48.67;100180.97;1776447;78;21828;-69
2022/05/12 02:42:43;;;;;;;9.53;4.53;;;;;;;8.84;48.65;100183.48;1759229;80;20994;-70
2022/05/12 02:45:10;;;;;;;11.48;4.72;;;;;;;8.86;48.54;100182.04;1750910;81;20971;-71
2022/05/12 02:47:37;;;;;;;9.23;4.60;;;;;;;8.86;48.44;100185.99;1782448;78;21036;-71
2022/05/12 02:50:07;;;;;;;8.08;4.30;;;;;;;8.86;48.44;100186.83;1776230;78;21109;-70
2022/05/12 02:52:34;;;;;;;7.53;4.37;;;;;;;8.87;48.33;100191.61;1776616;78;21871;-70
2022/05/12 02:55:01;;;;;;;10.53;4.75;;;;;;;8.88;48.30;100190.69;1787483;78;20945;-71
2022/05/12 02:57:28;;;;;;;10.05;4.80;;;;;;;8.87;48.29;100188.98;1788065;80;20948;-70
2022/05/12 02:59:55;;;;;;;12.93;4.78;;;;;;;8.87;48.40;100191.14;1779749;78;21446;-69
2022/05/12 03:02:22;;;;;;;13.62;4.83;;;;;;;8.88;48.38;100188.05;1759497;78;21039;-69
2022/05/12 03:04:50;;;;;;;13.50;4.42;;;;;;;8.88;48.39;100195.48;1773043;80;21783;-69
2022/05/12 03:07:17;;;;;;;11.85;4.22;;;;;;;8.87;48.43;100195.09;1752190;80;20945;-70
2022/05/12 03:09:45;;;;;;;10.65;4.42;;;;;;;8.88;48.58;100203.86;1767805;78;21043;-71
2022/05/12 03:12:11;;;;;;;10.45;4.75;;;;;;;8.84;48.60;100201.91;1757013;81;21011;-71
2022/05/12 03:14:39;;;;;;;10.82;4.72;;;;;;;8.82;48.70;100201.20;1758232;78;21509;-71
2022/05/12 03:17:06;;;;;;;11.53;4.62;;;;;;;8.80;48.76;100206.22;1758132;78;21791;-70
2022/05/12 03:19:33;;;;;;;9.23;4.60;;;;;;;8.79;48.86;100204.55;1759457;78;21043;-70
2022/05/12 03:22:00;;;;;;;14.73;5.00;;;;;;;8.80;48.88;100204.91;1762093;80;20944;-70
2022/05/12 03:24:27;;;;;;;8.85;4.50;;;;;;;8.80;48.93;100209.69;1759828;81;20972;-70
2022/05/12 03:26:55;;;;;;;7.80;4.42;;;;;;;8.80;48.95;100211.02;1759906;80;21483;-71
2022/05/12 03:29:22;;;;;;;10.68;4.67;;;;;;;8.81;49.01;100207.42;1757054;81;21742;-71
2022/05/12 03:31:50;;;;;;;12.45;5.22;;;;;;;8.82;49.12;100209.09;1786443;80;20936;-71
2022/05/12 03:34:17;;;;;;;10.10;4.70;;;;;;;8.82;49.15;100203.83;1763143;80;21419;-71
2022/05/12 03:36:44;;;;;;;9.70;4.20;;;;;;;8.83;49.23;100207.30;1756869;81;20996;-70
2022/05/12 03:39:11;;;;;;;7.15;4.25;;;;;;;8.82;49.25;100203.83;1756927;81;20972;-71
2022/05/12 03:41:38;;;;;;;13.93;5.10;;;;;;;8.85;49.29;100197.48;1755628;78;21838;-71
2022/05/12 03:46:53;;;;;;;10.28;4.30;;;;;;;8.88;49.37;100202.06;1745185;82;21071;-71
2022/05/12 03:49:22;;;;;;;8.85;4.53;;;;;;;8.91;49.39;100199.67;1745035;80;21008;-77
2022/05/12 03:51:49;;;;;;;9.93;4.80;;;;;;;8.92;49.44;100202.66;1734975;80;20991;-71
2022/05/12 03:54:16;;;;;;;10.13;5.35;;;;;;;8.94;49.39;100202.06;1737357;80;21996;-71
2022/05/12 03:56:44;;;;;;;8.85;4.80;;;;;;;8.98;49.41;100199.58;1757675;80;20988;-69
2022/05/12 03:59:11;;;;;;;14.60;4.80;;;;;;;9.03;49.51;100196.09;1769952;80;20964;-70
2022/05/12 04:01:38;;;;;;;12.45;4.78;;;;;;;9.13;49.62;100204.14;1745887;80;21013;-71
2022/05/12 04:04:05;;;;;;;10.88;4.65;;;;;;;9.23;49.65;100199.85;1746484;80;21020;-71
2022/05/12 04:06:32;;;;;;;11.75;4.53;;;;;;;9.37;49.64;100193.54;1744814;82;21512;-70
2022/05/12 04:08:59;;;;;;;11.93;4.80;;;;;;;9.53;49.54;100195.33;1747073;80;21024;-72
2022/05/12 04:11:27;;;;;;;11.12;4.60;;;;;;;9.71;49.29;100199.16;1743482;82;20996;-72
2022/05/12 04:13:56;;;;;;;10.40;4.53;;;;;;;9.91;48.99;100200.22;1743306;82;20981;-71
2022/05/12 04:16:23;;;;;;;10.25;4.15;;;;;;;10.13;48.81;100194.55;1759335;80;21027;-72
2022/05/12 04:18:51;;;;;;;12.53;4.20;;;;;;;10.35;48.94;100192.38;1759899;80;22026;-72
2022/05/12 04:21:18;;;;;;;12.82;4.80;;;;;;;10.58;48.84;100190.84;1762033;80;21061;-71
2022/05/12 04:23:45;;;;;;;7.75;3.85;;;;;;;10.81;48.62;100184.16;1775593;80;21556;-70
2022/05/12 04:26:12;;;;;;;13.95;4.72;;;;;;;11.07;48.36;100184.11;1775870;80;21535;-70
2022/05/12 04:28:39;;;;;;;8.48;3.60;;;;;;;11.39;47.91;100184.03;1775013;80;20992;-72
2022/05/12 04:31:06;;;;;;;7.95;3.87;;;;;;;11.70;46.89;100190.64;1751568;80;21997;-70
2022/05/12 04:36:21;;;;;;;9.58;4.08;;;;;;;12.18;46.16;100188.66;1775692;80;20996;-70
2022/05/12 04:38:48;;;;;;;8.98;4.10;;;;;;;12.37;45.70;100187.84;1772550;80;20997;-70
2022/05/12 04:41:16;;;;;;;12.30;3.90;;;;;;;12.53;45.51;100192.09;1750675;80;21051;-71
2022/05/12 04:43:43;;;;;;;8.83;3.85;;;;;;;12.67;45.53;100186.39;1775602;80;21721;-71
2022/05/12 04:46:11;;;;;;;10.65;3.87;;;;;;;12.81;45.03;100190.42;1748992;80;20998;-71
2022/05/12 04:48:39;;;;;;;9.65;4.00;;;;;;;12.95;44.67;100191.33;1745171;79;20938;-77
2022/05/12 04:51:06;;;;;;;7.10;3.47;;;;;;;13.10;44.50;100187.73;1759708;79;21401;-71
2022/05/12 04:53:34;;;;;;;9.00;3.37;;;;;;;13.28;44.44;100189.20;1762028;80;21029;-71
2022/05/12 04:56:01;;;;;;;10.88;4.33;;;;;;;13.46;44.40;100188.80;1776038;80;22412;-71
2022/05/12 04:58:29;;;;;;;13.88;4.30;;;;;;;13.68;44.15;100186.27;1774716;79;20974;-71
2022/05/12 05:00:56;;;;;;;9.30;4.17;;;;;;;13.91;44.06;100188.06;1750311;79;21460;-72
2022/05/12 05:03:23;;;;;;;9.33;3.92;;;;;;;14.15;43.84;100187.00;1764602;80;21049;-72
2022/05/12 05:05:52;;;;;;;7.05;3.60;;;;;;;14.43;43.26;100185.63;1769596;80;21025;-72
2022/05/12 05:08:21;;;;;;;12.55;3.65;;;;;;;14.65;42.60;100185.20;1763879;80;22536;-71
2022/05/12 05:10:48;;;;;;;10.98;4.03;;;;;;;14.80;42.48;100178.86;1749816;79;20914;-73
2022/05/12 05:13:15;;;;;;;9.18;3.95;;;;;;;14.94;42.28;100178.30;1745585;80;21166;-73
2022/05/12 05:15:42;;;;;;;10.03;4.15;;;;;;;15.07;41.78;100181.90;1746467;80;21035;-71
2022/05/12 05:18:11;;;;;;;7.87;3.65;;;;;;;15.20;41.86;100171.67;1754706;79;20954;-72
2022/05/12 05:20:38;;;;;;;11.48;3.33;;;;;;;15.35;41.70;100175.44;1763895;79;22479;-71
2022/05/12 05:23:06;;;;;;;14.90;3.85;;;;;;;15.53;41.35;100170.52;1761715;80;20990;-72
2022/05/12 05:25:33;;;;;;;12.85;3.85;;;;;;;15.72;41.21;100174.30;1761035;80;21096;-72
2022/05/12 05:28:00;;;;;;;14.03;3.98;;;;;;;15.89;41.07;100171.22;1762533;79;21010;-72
2022/05/12 05:30:27;;;;;;;16.27;4.00;;;;;;;16.04;40.73;100174.95;1756954;80;20966;-75
2022/05/12 05:32:54;;;;;;;8.50;3.47;;;;;;;16.17;40.54;100171.31;1745996;80;21808;-73
2022/05/12 05:35:21;;;;;;;13.68;3.80;;;;;;;16.30;39.96;100170.33;1731789;82;21425;-73
2022/05/12 05:37:48;;;;;;;9.65;3.55;;;;;;;16.41;39.86;100167.88;1745276;82;20958;-73
2022/05/12 05:40:17;;;;;;;9.65;3.62;;;;;;;16.53;39.41;100169.22;1774912;79;21046;-73
2022/05/12 05:42:46;;;;;;;12.53;3.50;;;;;;;16.64;39.23;100172.55;1749370;80;21051;-73
2022/05/12 05:45:16;;;;;;;13.72;3.55;;;;;;;16.71;39.31;100169.09;1763833;79;22531;-75
2022/05/12 05:47:50;;;;;;;11.28;3.87;;;;;;;16.79;39.61;100169.10;1751598;80;20993;-73
2022/05/12 05:50:20;;;;;;;10.82;3.77;;;;;;;16.91;39.34;100165.59;1757945;80;21355;-72
2022/05/12 05:55:33;;;;;;;14.53;4.28;;;;;;;17.10;39.20;100171.08;1746294;80;21024;-72
2022/05/12 05:58:01;;;;;;;8.78;3.95;;;;;;;17.16;39.24;100171.72;1751952;80;21914;-72
2022/05/12 06:00:29;;;;;;;13.08;3.95;;;;;;;17.23;39.02;100163.38;1760247;80;20989;-71
2022/05/12 06:02:56;;;;;;;10.80;3.83;;;;;;;17.33;38.52;100159.18;1769210;79;20989;-73
2022/05/12 06:05:23;;;;;;;10.53;3.65;;;;;;;17.45;38.90;100164.48;1807858;79;21040;-74
2022/05/12 06:07:52;;;;;;;14.13;4.00;;;;;;;17.59;38.75;100160.28;1764434;79;20956;-75
2022/05/12 06:10:19;;;;;;;15.70;4.20;;;;;;;17.69;38.56;100155.57;1763197;80;21915;-73
2022/05/12 06:12:48;;;;;;;15.25;4.08;;;;;;;17.76;38.52;100153.91;1751244;80;21000;-74
2022/05/12 06:15:15;;;;;;;8.68;3.50;;;;;;;17.82;38.35;100159.05;1749879;80;21004;-74
2022/05/12 06:17:42;;;;;;;9.33;3.27;;;;;;;17.89;37.91;100161.36;1772759;80;21444;-75
2022/05/12 06:20:10;;;;;;;11.45;3.40;;;;;;;18.02;37.19;100159.77;1744957;82;21036;-75
2022/05/12 06:22:38;;;;;;;8.40;3.40;;;;;;;18.16;36.86;100152.87;1744979;82;21856;-75
2022/05/12 06:25:07;;;;;;;7.12;3.02;;;;;;;18.32;36.40;100141.22;1744888;82;20988;-76
2022/05/12 06:27:34;;;;;;;7.03;3.33;;;;;;;18.46;36.99;100143.65;1773071;80;21452;-75
2022/05/12 06:30:04;;;;;;;13.60;3.00;;;;;;;18.65;36.45;100143.20;1775619;80;20966;-72
2022/05/12 06:32:31;;;;;;;13.68;3.40;;;;;;;18.80;35.69;100140.04;1759177;80;21023;-73
2022/05/12 06:34:58;;;;;;;7.62;3.22;;;;;;;18.98;35.97;100142.91;1746058;79;21974;-74
2022/05/12 06:37:25;;;;;;;13.93;3.02;;;;;;;19.15;35.73;100147.09;1744948;82;20912;-82
2022/05/12 06:39:52;;;;;;;9.50;3.02;;;;;;;19.32;35.75;100142.41;1744926;82;21807;-80
2022/05/12 06:42:20;;;;;;;9.30;2.72;;;;;;;19.53;35.42;100138.98;1745538;80;21145;-76
2022/05/12 06:44:47;;;;;;;10.53;3.33;;;;;;;19.70;35.39;100139.97;1763828;80;20946;-79
2022/05/12 06:47:15;;;;;;;5.83;2.62;;;;;;;19.87;35.31;100139.23;1762453;80;21747;-78
2022/05/12 06:49:42;;;;;;;7.42;3.10;;;;;;;20.05;35.28;100140.17;1748252;80;21603;-79
2022/05/12 06:52:09;;;;;;;10.80;3.02;;;;;;;20.24;34.93;100130.69;1775581;80;20951;-81
2022/05/12 06:54:38;;;;;;;11.38;3.65;;;;;;;20.40;33.58;100122.40;1775910;80;20987;-79
2022/05/12 06:57:05;;;;;;;8.48;2.92;;;;;;;20.51;34.35;100116.55;1753995;79;21006;-78
2022/05/12 06:59:39;;;;;;;7.47;2.75;;;;;;;20.64;33.42;100113.66;1763321;80;21809;-78
2022/05/12 07:02:07;;;;;;;6.03;2.70;;;;;;;20.77;32.66;100106.56;1754068;80;21428;-77
2022/05/12 07:04:34;;;;;;;10.75;2.62;;;;;;;20.92;32.83;100107.79;1765596;80;21416;-77
2022/05/12 07:07:02;;;;;;;10.30;3.02;;;;;;;21.08;32.33;100102.13;1767419;80;20966;-76
2022/05/12 07:09:31;;;;;;;9.75;3.17;;;;;;;21.21;32.35;100103.23;1746850;80;20970;-77
2022/05/12 07:11:58;;;;;;;9.13;3.40;;;;;;;21.36;32.49;100108.84;1771083;80;21818;-77
2022/05/12 07:14:25;;;;;;;6.58;2.27;;;;;;;21.49;32.42;100097.84;1745933;80;21457;-75
2022/05/12 07:16:53;;;;;;;6.35;3.20;;;;;;;21.61;30.15;100101.61;1765742;80;21002;-75
2022/05/12 07:19:21;;;;;;;6.47;1.65;;;;;;;21.73;28.24;100098.69;1766159;80;21376;-76
2022/05/12 07:27:21;;;;;;;7.77;1.70;;;;;;;22.20;26.62;100088.41;1740382;80;38234;-76
2022/05/12 07:29:48;;;;;;;8.15;1.60;;;;;;;22.42;26.60;100090.91;1760940;80;20994;-77
2022/05/12 07:32:15;;;;;;;6.03;1.70;;;;;;;22.59;26.29;100086.79;1755636;80;21055;-75
2022/05/12 07:34:43;;;;;;;2.62;1.32;;;;;;;22.72;25.76;100096.72;1751355;80;21049;-74
2022/05/12 07:37:10;;;;;;;4.67;1.70;;;;;;;22.80;24.69;100087.91;1753810;80;21941;-74
2022/05/12 07:39:37;;;;;;;4.40;1.50;;;;;;;22.84;24.78;100090.52;1757351;79;21461;-74
2022/05/12 07:42:05;;;;;;;3.12;1.30;;;;;;;22.88;24.06;100083.39;1766116;79;21006;-73
2022/05/12 07:44:32;;;;;;;5.70;1.60;;;;;;;22.88;24.56;100082.88;1769892;80;21222;-74
2022/05/12 07:47:05;;;;;;;4.28;1.72;;;;;;;22.91;25.15;100091.87;1798507;79;21401;-78
2022/05/12 07:49:57;;;;;;;3.15;1.60;;;;;;;23.04;24.41;100086.45;1782497;79;21940;-84
2022/05/12 07:52:29;;;;;;;5.15;1.95;;;;;;;23.18;24.13;100082.41;1746476;81;21075;-82
2022/05/12 07:54:57;;;;;;;6.72;1.72;;;;;;;23.23;24.20;100076.67;1778065;80;21000;-81
2022/05/12 07:57:25;;;;;;;5.80;2.10;;;;;;;23.31;24.38;100078.31;1777164;79;21475;-83
2022/05/12 07:59:51;;;;;;;4.22;1.47;;;;;;;23.45;24.14;100073.70;1742089;79;21080;-81
2022/05/12 08:02:20;;;;;;;4.83;1.75;;;;;;;23.54;23.24;100067.03;1766153;80;21939;-82
2022/05/12 08:04:51;;;;;;;3.65;1.70;;;;;;;23.62;23.21;100069.00;1767114;79;21475;-81
2022/05/12 08:07:18;;;;;;;3.90;2.00;;;;;;;23.71;23.22;100064.19;1757418;79;21104;-77
2022/05/12 08:09:45;;;;;;;3.52;1.57;;;;;;;23.75;23.59;100072.70;1742162;79;21073;-79
2022/05/12 08:12:12;;;;;;;4.87;1.65;;;;;;;23.80;22.92;100074.21;1753195;79;21062;-77
2022/05/12 08:14:39;;;;;;;3.37;1.50;;;;;;;23.83;23.13;100063.80;1758570;80;21546;-78
2022/05/12 08:17:06;;;;;;;5.45;1.50;;;;;;;23.89;23.09;100056.21;1734372;82;21044;-82
2022/05/12 08:19:34;;;;;;;5.58;1.80;;;;;;;23.95;22.93;100051.31;1752108;79;21068;-78
2022/05/12 08:22:02;;;;;;;7.30;1.47;;;;;;;24.03;22.84;100060.17;1774440;79;21076;-79
2022/05/12 08:24:29;;;;;;;5.22;1.60;;;;;;;24.09;22.10;100054.73;1741328;79;21068;-79
2022/05/12 08:26:56;;;;;;;5.08;1.95;;;;;;;24.14;22.31;100059.50;1761023;81;21840;-78
2022/05/12 08:29:25;;;;;;;6.05;1.70;;;;;;;24.17;22.48;100049.09;1763198;81;21022;-78
2022/05/12 08:31:52;;;;;;;3.52;1.80;;;;;;;24.17;22.39;100054.48;1734106;80;21313;-79
2022/05/12 08:34:19;;;;;;;3.35;1.52;;;;;;;24.18;22.77;100045.86;1759649;79;21067;-81
2022/05/12 08:36:49;;;;;;;6.08;1.80;;;;;;;24.21;22.69;100046.77;1746049;80;21440;-78
2022/05/12 08:39:17;;;;;;;20.12;1.92;;;;;;;24.33;22.89;100041.55;1749363;79;22452;-77
2022/05/12 08:41:51;;;;;;;3.00;1.60;;;;;;;24.48;22.59;100042.85;1762073;80;21080;-76
2022/05/12 08:44:20;;;;;;;8.25;1.80;;;;;;;24.51;22.45;100047.83;1745006;81;21064;-75
2022/05/12 08:46:58;;;;;;;4.42;1.65;;;;;;;24.55;22.22;100038.23;1750722;81;21071;-76
2022/05/12 08:49:40;;;;;;;4.25;1.77;;;;;;;24.62;22.26;100039.53;1746071;80;21531;-78
2022/05/12 08:52:46;;;;;;;6.60;2.00;;;;;;;24.76;23.00;100035.64;1748055;81;21937;-77
2022/05/12 08:55:25;;;;;;;4.92;1.90;;;;;;;24.93;22.67;100033.72;1738325;80;21052;-81
2022/05/12 08:58:06;;;;;;;4.85;1.80;;;;;;;25.08;23.20;100031.49;1748455;80;21068;-76
2022/05/12 09:01:01;;;;;;;6.95;2.00;;;;;;;25.19;22.81;100028.56;1723858;81;21021;-77
2022/05/12 09:03:55;;;;;;;10.80;1.85;;;;;;;25.23;21.92;100028.43;1691461;83;21080;-75
2022/05/12 09:06:32;;;;;;;4.62;1.60;;;;;;;25.23;21.36;100025.73;1680944;84;21900;-75
2022/05/12 09:09:40;;;;;;;3.77;1.77;;;;;;;25.14;21.26;100031.95;1727953;81;21060;-76
2022/05/12 09:12:45;;;;;;;4.08;1.60;;;;;;;25.10;20.91;100026.19;1749299;80;21052;-75
2022/05/12 09:15:23;;;;;;;3.22;1.40;;;;;;;25.10;20.82;100016.73;1738969;80;21610;-76
2022/05/12 09:17:57;;;;;;;5.72;1.50;;;;;;;25.21;20.79;100021.08;1745268;80;21049;-76
2022/05/12 09:20:26;;;;;;;4.75;1.45;;;;;;;25.29;19.75;100022.13;1749877;81;21991;-76
2022/05/12 09:22:53;;;;;;;3.22;1.70;;;;;;;25.31;19.71;100019.49;1747679;80;21056;-76
2022/05/12 09:25:41;;;;;;;6.08;2.00;;;;;;;25.37;20.67;100007.75;1739217;81;21083;-76
2022/05/12 09:28:34;;;;;;;4.58;1.62;;;;;;;25.54;20.51;100013.37;1727732;80;21092;-75
2022/05/12 09:31:18;;;;;;;3.25;1.52;;;;;;;25.80;20.27;99999.22;1733314;80;21013;-75
2022/05/12 09:33:48;;;;;;;6.05;1.60;;;;;;;26.08;20.95;99990.47;1736552;80;21071;-79
2022/05/12 09:36:27;;;;;;;6.47;1.45;;;;;;;26.39;19.82;99997.48;1725078;81;21072;-76
2022/05/12 09:38:55;;;;;;;8.43;1.77;;;;;;;26.48;19.96;99995.55;1748413;80;21025;-75
2022/05/12 09:41:25;;;;;;;3.52;1.70;;;;;;;26.57;20.22;99992.48;1739935;80;21531;-75
2022/05/12 09:43:53;;;;;;;6.33;1.80;;;;;;;26.73;19.30;100002.09;1736796;80;21048;-75
2022/05/12 09:46:29;;;;;;;5.80;1.72;;;;;;;26.78;19.62;99987.29;1783177;79;21817;-76
2022/05/12 09:48:53;;;;;;;4.25;1.87;;;;;;;26.80;19.25;99998.70;1742500;81;21061;-77
2022/05/12 09:51:32;;;;;;;5.20;1.82;;;;;;;26.81;19.64;99985.98;1762846;80;21048;-76
2022/05/12 09:54:28;;;;;;;3.35;1.50;;;;;;;26.91;19.62;99997.04;1726885;80;21152;-77
2022/05/12 09:57:23;;;;;;;4.65;1.80;;;;;;;27.03;19.53;99984.34;1734111;80;21464;-75
2022/05/12 09:59:56;;;;;;;3.25;1.40;;;;;;;27.16;19.54;99987.84;1732804;81;21814;-80
2022/05/12 10:08:21;;;;;;;9.73;1.87;;;;;;;27.32;19.57;99989.81;1778490;80;21009;-77
2022/05/12 10:10:53;;;;;;;3.42;1.80;;;;;;;27.46;19.67;99988.98;1753180;81;21013;-78
2022/05/12 10:13:34;;;;;;;3.90;1.75;;;;;;;27.65;20.18;99975.02;1727220;81;21820;-78
2022/05/12 10:16:01;;;;;;;4.60;1.92;;;;;;;27.92;20.23;99971.69;1712971;83;21504;-75
2022/05/12 10:18:46;;;;;;;5.67;1.95;;;;;;;28.17;19.52;99973.45;1726428;82;21045;-77
2022/05/12 10:21:42;;;;;;;6.15;1.92;;;;;;;28.20;20.10;99971.63;1740280;80;21110;-77
2022/05/12 10:24:38;;;;;;;4.83;1.60;;;;;;;28.28;19.77;99979.05;1752780;81;21019;-77
2022/05/12 10:27:31;;;;;;;3.20;1.70;;;;;;;28.33;19.87;99971.84;1748623;81;21849;-80
2022/05/12 10:30:21;;;;;;;5.85;2.00;;;;;;;28.44;19.87;99957.34;1737659;81;21055;-74
2022/05/12 10:33:06;;;;;;;5.05;1.92;;;;;;;28.46;19.73;99955.19;1746981;81;21094;-76
2022/05/12 10:36:05;;;;;;;10.70;2.10;;;;;;;28.51;20.05;99959.35;1726240;82;21091;-77
2022/05/12 10:38:45;;;;;;;6.87;1.80;;;;;;;28.51;20.05;99959.35;1728630;82;21076;-77
2022/05/12 10:41:27;;;;;;;4.62;1.70;;;;;;;28.54;19.76;99935.47;1723873;81;21920;-78
2022/05/12 10:44:08;;;;;;;6.10;1.93;;;;;;;28.70;19.93;99945.48;1751927;81;21058;-83
2022/05/12 10:47:14;;;;;;;7.08;1.90;;;;;;;28.91;19.76;99939.80;1758255;80;21092;-78
2022/05/12 10:50:07;;;;;;;4.15;1.67;;;;;;;28.99;19.78;99930.67;1735565;81;21067;-79
2022/05/12 10:53:02;;;;;;;5.67;2.07;;;;;;;29.04;19.16;99934.80;1752686;79;21508;-79
2022/05/12 10:56:09;;;;;;;4.70;1.67;;;;;;;28.99;19.83;99930.67;1765410;81;21876;-74
2022/05/12 10:58:44;;;;;;;5.00;1.90;;;;;;;29.10;19.49;99926.17;1765586;81;21091;-74
2022/05/12 11:01:22;;;;;;;4.00;1.80;;;;;;;29.16;19.75;99917.00;1764969;80;21068;-78
2022/05/12 11:04:09;;;;;;;4.30;1.80;;;;;;;29.26;20.07;99905.41;1758729;80;21052;-77
2022/05/12 11:06:47;;;;;;;6.70;1.72;;;;;;;29.39;19.62;99921.86;1765309;81;21071;-79
2022/05/12 11:09:33;;;;;;;4.30;1.90;;;;;;;29.39;19.54;99902.27;1765122;81;21932;-81
2022/05/12 11:12:06;;;;;;;5.25;2.00;;;;;;;29.41;19.17;99911.00;1764157;80;21056;-81
2022/05/12 11:14:40;;;;;;;5.12;2.08;;;;;;;29.50;19.44;99883.64;1734858;82;21562;-79
2022/05/12 11:17:25;;;;;;;8.60;2.33;;;;;;;29.67;19.55;99886.78;1747034;80;21028;-75
2022/05/12 11:20:25;;;;;;;5.17;1.85;;;;;;;29.88;18.89;99877.70;1765584;81;21032;-74
2022/05/12 11:23:25;;;;;;;3.52;1.85;;;;;;;30.00;19.15;99867.97;1749134;80;21956;-77
2022/05/12 11:26:15;;;;;;;3.85;1.80;;;;;;;30.05;18.60;99863.39;1736586;82;21016;-77
2022/05/12 11:31:47;;;;;;;4.92;1.90;;;;;;;30.15;18.93;99845.78;1744266;80;21064;-83
2022/05/12 11:34:20;;;;;;;6.03;2.00;;;;;;;30.19;18.62;99830.54;1742632;79;20974;-80
2022/05/12 11:36:49;;;;;;;;;;;;;;;30.28;18.72;99846.39;1737093;82;21919;-79
2022/05/12 11:39:41;;;;;;;6.33;1.77;;;;;;;30.32;19.00;99844.80;1735636;81;20195;-78
2022/05/12 11:42:20;;;;;;;2.92;1.62;;;;;;;30.41;19.07;99836.39;1745633;80;20993;-79
2022/05/12 11:45:07;;;;;;;5.40;1.80;;;;;;;30.49;18.28;99838.05;1746133;81;21331;-80
2022/05/12 11:47:58;;;;;;;4.22;1.92;;;;;;;30.52;19.05;99833.17;1736074;81;21025;-81
2022/05/12 11:50:30;;;;;;;4.03;2.12;;;;;;;30.57;18.78;99826.36;1723188;83;22153;-80
2022/05/12 11:53:05;;;;;;;8.08;2.05;;;;;;;30.56;18.91;99824.18;1731504;81;21449;-81
2022/05/12 11:55:37;;;;;;;9.38;2.30;;;;;;;30.57;18.61;99807.28;1750684;81;21030;-76
2022/05/12 11:58:12;;;;;;;6.22;1.75;;;;;;;30.62;19.16;99805.41;1720018;83;21093;-77
2022/05/12 12:00:46;;;;;;;5.22;1.90;;;;;;;30.75;19.06;99807.65;1723047;83;21060;-76
2022/05/12 12:03:24;;;;;;;5.83;2.10;;;;;;;30.82;18.92;99810.67;1726468;81;21941;-77
2022/05/12 12:05:58;;;;;;;5.22;2.10;;;;;;;30.87;19.29;99799.77;1723091;82;21142;-77
2022/05/12 12:08:38;;;;;;;7.67;2.30;;;;;;;31.02;19.43;99801.98;1723365;83;21037;-77
2022/05/12 12:11:22;;;;;;;6.80;2.05;;;;;;;31.15;19.62;99813.45;1724135;81;21100;-76